I'm testing a new template at https://dunchurchweather.co.uk/meteo/. Try it and see what you think.
Wind From: 18-01-2018 00:00 Until: 09:00 warning for: Wind Level: Yellow info button

This weather station is in Dunchurch, Warwickshire.

The current conditions are dark and dry, with a calculated cloudbase of 558m and a leaf wetness value of 0 (out of a maximum of 15).
The forecast is Increasing clouds and cooler. Precipitation possible within 6 hours. Windy with possible wind shift to the W, NW, or N.
There have been 0.00 hours of sunshine so far today and the sunniest day so far this year is 7 Jan 2018 (0.92 hrs).
The last significant rain was Today (1.2 mm) and the wettest day so far this year is 2 Jan 2018 (7.0 mm)


Webcam more information Webcam



Nearby METAR Reports

   
EGBE - Coventry Airport
Updated: Jul 18 2017 2:50 pm
NOT Current
Clear  
Clear  
   Wind: East 16.1 mph
Wind: East 16.1 mph
Temperature: 27°C
Heat Index: 27°C
Dew Point: 14°C
Humidity: 45%
Barometer: 1015 hPa
Visibility: More than 10 km
Cloud details: Clear m
EGBE 181350Z 10014KT 060V120 CAVOK 27/14 Q1015
EGBB - Birmingham Airport
Updated: Jan 18 2018 3:50 am
Partly Cloudy  
Partly Cloudy  
   Wind: West 26.5 mph<br />Gust to 26.5 mph
Wind: West 26.5 mph
Gust to 26.5 mph
Temperature: 9°C
Wind Chill: 4°C
Dew Point: 3°C
Humidity: 66%
Barometer: 988 hPa
Clouds: Partly Cloudy
Visibility: More than 10 km
Cloud details: Partly Cloudy 1097.3 m
EGBB 180350Z 27023G41KT 9999 SCT036 09/03 Q0988
EGNX - East Midlands Airport
Updated: Jan 18 2018 3:50 am
Overcast  
Overcast  
   Wind: WSW 41.4 mph<br />Gust to 41.4 mph
Wind: WSW 41.4 mph
Gust to 41.4 mph
Temperature: 9°C
Wind Chill: 3°C
Dew Point: 4°C
Humidity: 71%
Barometer: 984 hPa
Clouds: Overcast
Visibility: More than 10 km
Cloud details: Mostly Cloudy 1005.8 m,
Overcast 1493.5 m
EGNX 180350Z 25036G53KT 9999 BKN033 OVC049 09/04 Q0984
EGLL - London Heathrow Airport
Updated: Jan 18 2018 3:50 am
Mostly Cloudy  
Mostly Cloudy  
   Wind: West 44.9 mph<br />Gust to 44.9 mph
Wind: West 44.9 mph
Gust to 44.9 mph
Temperature: 12°C
Dew Point: 5°C
Humidity: 63%
Barometer: 991 hPa
Clouds: Mostly Cloudy
Visibility: More than 10 km
Cloud details: Mostly Cloudy 1127.8 m,
Mostly Cloudy 1371.6 m
EGLL 180350Z AUTO 26039G55KT 9999 BKN037 BKN045 12/05 Q0991 TEMPO 26025G45KT
EGKK - Gatwick Airport
Updated: Jan 18 2018 3:50 am
Partly Cloudy  
Partly Cloudy  
   Wind: WSW 24.2 mph<br />Gust to 24.2 mph
Wind: WSW 24.2 mph
Gust to 24.2 mph
Temperature: 11°C
Dew Point: 8°C
Humidity: 82%
Barometer: 993 hPa
Clouds: Partly Cloudy
Visibility: More than 10 km
Cloud details: Partly Cloudy 701 m,
Partly Cloudy 944.9 m
EGKK 180350Z 24021G38KT 9999 SCT023 SCT031 11/08 Q0993
EGCC - Manchester Airport
Updated: Jan 18 2018 3:50 am
Overcast  
Overcast  
   Wind: West 33.4 mph<br />Gust to 33.4 mph
Wind: West 33.4 mph
Gust to 33.4 mph
Temperature: 6°C
Wind Chill: 0°C
Dew Point: 3°C
Humidity: 81%
Barometer: 985 hPa
Clouds: Overcast
Visibility: More than 10 km
Cloud details: Mostly Cloudy 426.7 m,
Overcast 579.1 m
EGCC 180350Z AUTO 27029G39KT 9999 BKN014 OVC019 06/03 Q0985 RERA TEMPO SHRA SCT014

Script developed by  Saratoga-weather.org Adapted for the template by  Weerstation Leuven